sensor_id;sensor_type;location;lat;lon;timestamp;P1;durP1;ratioP1;P2;durP2;ratioP2
38123;SDS011;23934;47.998;9.832;2023-04-24T00:00:00;3.40;;;1.17;;
38123;SDS011;23934;47.998;9.832;2023-04-24T00:02:28;3.95;;;1.20;;
38123;SDS011;23934;47.998;9.832;2023-04-24T00:04:55;3.75;;;1.50;;
38123;SDS011;23934;47.998;9.832;2023-04-24T00:07:21;4.82;;;1.35;;
38123;SDS011;23934;47.998;9.832;2023-04-24T00:09:47;3.25;;;1.20;;
38123;SDS011;23934;47.998;9.832;2023-04-24T00:12:13;2.67;;;1.38;;
38123;SDS011;23934;47.998;9.832;2023-04-24T00:14:39;8.13;;;1.45;;
38123;SDS011;23934;47.998;9.832;2023-04-24T00:17:05;5.00;;;1.77;;
38123;SDS011;23934;47.998;9.832;2023-04-24T00:19:31;7.00;;;1.60;;
38123;SDS011;23934;47.998;9.832;2023-04-24T00:21:57;4.20;;;1.95;;
38123;SDS011;23934;47.998;9.832;2023-04-24T00:24:23;8.00;;;2.10;;
38123;SDS011;23934;47.998;9.832;2023-04-24T00:26:49;2.78;;;1.60;;
38123;SDS011;23934;47.998;9.832;2023-04-24T00:29:15;8.65;;;2.42;;
38123;SDS011;23934;47.998;9.832;2023-04-24T00:31:41;4.43;;;1.80;;
38123;SDS011;23934;47.998;9.832;2023-04-24T00:34:06;4.05;;;1.35;;
38123;SDS011;23934;47.998;9.832;2023-04-24T00:36:33;8.88;;;1.75;;
38123;SDS011;23934;47.998;9.832;2023-04-24T00:38:58;4.10;;;1.63;;
38123;SDS011;23934;47.998;9.832;2023-04-24T00:41:25;6.50;;;1.58;;
38123;SDS011;23934;47.998;9.832;2023-04-24T00:43:51;6.82;;;1.67;;
38123;SDS011;23934;47.998;9.832;2023-04-24T00:46:17;6.07;;;1.30;;
38123;SDS011;23934;47.998;9.832;2023-04-24T00:48:44;2.13;;;1.20;;
38123;SDS011;23934;47.998;9.832;2023-04-24T00:51:10;5.10;;;1.08;;
38123;SDS011;23934;47.998;9.832;2023-04-24T00:53:36;5.28;;;1.60;;
38123;SDS011;23934;47.998;9.832;2023-04-24T00:56:02;3.33;;;1.25;;
38123;SDS011;23934;47.998;9.832;2023-04-24T00:58:28;8.77;;;1.30;;
38123;SDS011;23934;47.998;9.832;2023-04-24T01:00:56;2.45;;;1.13;;
38123;SDS011;23934;47.998;9.832;2023-04-24T01:03:23;3.45;;;1.15;;
38123;SDS011;23934;47.998;9.832;2023-04-24T01:05:51;7.00;;;1.83;;
38123;SDS011;23934;47.998;9.832;2023-04-24T01:08:17;12.90;;;2.45;;
38123;SDS011;23934;47.998;9.832;2023-04-24T01:10:43;9.23;;;2.40;;
38123;SDS011;23934;47.998;9.832;2023-04-24T01:13:11;10.43;;;1.67;;
38123;SDS011;23934;47.998;9.832;2023-04-24T01:15:37;2.33;;;1.40;;
38123;SDS011;23934;47.998;9.832;2023-04-24T01:18:03;3.90;;;1.60;;
38123;SDS011;23934;47.998;9.832;2023-04-24T01:20:29;2.55;;;0.85;;
38123;SDS011;23934;47.998;9.832;2023-04-24T01:22:56;2.75;;;1.00;;
38123;SDS011;23934;47.998;9.832;2023-04-24T01:25:23;2.50;;;1.23;;
38123;SDS011;23934;47.998;9.832;2023-04-24T01:27:49;3.72;;;1.48;;
38123;SDS011;23934;47.998;9.832;2023-04-24T01:30:16;4.43;;;1.70;;
38123;SDS011;23934;47.998;9.832;2023-04-24T01:32:42;2.10;;;1.17;;
38123;SDS011;23934;47.998;9.832;2023-04-24T01:35:11;7.22;;;1.50;;
38123;SDS011;23934;47.998;9.832;2023-04-24T01:37:37;2.50;;;1.25;;
38123;SDS011;23934;47.998;9.832;2023-04-24T01:40:06;2.17;;;1.08;;
38123;SDS011;23934;47.998;9.832;2023-04-24T01:42:32;2.60;;;1.20;;
38123;SDS011;23934;47.998;9.832;2023-04-24T01:44:59;6.85;;;1.55;;
38123;SDS011;23934;47.998;9.832;2023-04-24T01:47:25;1.98;;;1.05;;
38123;SDS011;23934;47.998;9.832;2023-04-24T01:49:51;4.28;;;1.73;;
38123;SDS011;23934;47.998;9.832;2023-04-24T01:52:17;6.32;;;1.45;;
38123;SDS011;23934;47.998;9.832;2023-04-24T01:54:43;3.20;;;2.33;;
38123;SDS011;23934;47.998;9.832;2023-04-24T01:57:10;4.72;;;1.48;;
38123;SDS011;23934;47.998;9.832;2023-04-24T01:59:36;3.45;;;1.35;;
38123;SDS011;23934;47.998;9.832;2023-04-24T02:02:02;2.95;;;1.52;;
38123;SDS011;23934;47.998;9.832;2023-04-24T02:04:28;4.20;;;1.35;;
38123;SDS011;23934;47.998;9.832;2023-04-24T02:06:54;8.20;;;1.95;;
38123;SDS011;23934;47.998;9.832;2023-04-24T02:09:20;2.22;;;1.10;;
38123;SDS011;23934;47.998;9.832;2023-04-24T02:11:46;1.60;;;1.10;;
38123;SDS011;23934;47.998;9.832;2023-04-24T02:14:12;3.53;;;1.35;;
38123;SDS011;23934;47.998;9.832;2023-04-24T02:16:38;2.00;;;1.25;;
38123;SDS011;23934;47.998;9.832;2023-04-24T02:19:04;2.78;;;1.20;;
38123;SDS011;23934;47.998;9.832;2023-04-24T02:21:30;2.80;;;0.95;;
38123;SDS011;23934;47.998;9.832;2023-04-24T02:23:56;2.78;;;1.27;;
38123;SDS011;23934;47.998;9.832;2023-04-24T02:26:22;3.38;;;1.20;;
38123;SDS011;23934;47.998;9.832;2023-04-24T02:28:48;2.58;;;0.77;;
38123;SDS011;23934;47.998;9.832;2023-04-24T02:31:14;3.60;;;1.17;;
38123;SDS011;23934;47.998;9.832;2023-04-24T02:33:40;4.65;;;0.93;;
38123;SDS011;23934;47.998;9.832;2023-04-24T02:36:06;3.40;;;1.10;;
38123;SDS011;23934;47.998;9.832;2023-04-24T02:38:34;1.65;;;1.02;;
38123;SDS011;23934;47.998;9.832;2023-04-24T02:41:00;1.92;;;0.90;;
38123;SDS011;23934;47.998;9.832;2023-04-24T02:43:27;3.13;;;1.08;;
38123;SDS011;23934;47.998;9.832;2023-04-24T02:45:53;2.30;;;0.75;;
38123;SDS011;23934;47.998;9.832;2023-04-24T02:48:19;2.50;;;1.15;;
38123;SDS011;23934;47.998;9.832;2023-04-24T02:50:45;2.30;;;1.10;;
38123;SDS011;23934;47.998;9.832;2023-04-24T02:53:11;1.20;;;0.80;;
38123;SDS011;23934;47.998;9.832;2023-04-24T02:55:37;2.50;;;1.45;;
38123;SDS011;23934;47.998;9.832;2023-04-24T02:58:03;1.95;;;1.20;;
38123;SDS011;23934;47.998;9.832;2023-04-24T03:00:30;1.63;;;1.00;;
38123;SDS011;23934;47.998;9.832;2023-04-24T03:02:56;2.55;;;0.95;;
38123;SDS011;23934;47.998;9.832;2023-04-24T03:05:22;2.15;;;0.90;;
38123;SDS011;23934;47.998;9.832;2023-04-24T03:07:48;1.60;;;0.90;;
38123;SDS011;23934;47.998;9.832;2023-04-24T03:10:14;2.35;;;1.30;;
38123;SDS011;23934;47.998;9.832;2023-04-24T03:12:40;4.13;;;1.40;;
38123;SDS011;23934;47.998;9.832;2023-04-24T03:15:06;1.98;;;1.08;;
38123;SDS011;23934;47.998;9.832;2023-04-24T03:17:32;1.45;;;0.93;;
38123;SDS011;23934;47.998;9.832;2023-04-24T03:19:58;2.25;;;0.93;;
38123;SDS011;23934;47.998;9.832;2023-04-24T03:22:24;2.33;;;0.80;;
38123;SDS011;23934;47.998;9.832;2023-04-24T03:24:50;1.77;;;0.80;;
38123;SDS011;23934;47.998;9.832;2023-04-24T03:27:16;1.90;;;0.90;;
38123;SDS011;23934;47.998;9.832;2023-04-24T03:29:42;1.10;;;0.60;;
38123;SDS011;23934;47.998;9.832;2023-04-24T03:32:08;1.00;;;0.55;;
38123;SDS011;23934;47.998;9.832;2023-04-24T03:34:34;1.13;;;0.77;;
38123;SDS011;23934;47.998;9.832;2023-04-24T03:37:00;0.73;;;0.50;;
38123;SDS011;23934;47.998;9.832;2023-04-24T03:39:26;3.25;;;0.60;;
38123;SDS011;23934;47.998;9.832;2023-04-24T03:41:52;1.17;;;0.70;;
38123;SDS011;23934;47.998;9.832;2023-04-24T03:44:18;1.45;;;0.57;;
38123;SDS011;23934;47.998;9.832;2023-04-24T03:46:44;3.92;;;0.85;;
38123;SDS011;23934;47.998;9.832;2023-04-24T03:49:10;2.05;;;1.10;;
38123;SDS011;23934;47.998;9.832;2023-04-24T03:51:36;1.38;;;0.50;;
38123;SDS011;23934;47.998;9.832;2023-04-24T03:54:02;0.70;;;0.52;;
38123;SDS011;23934;47.998;9.832;2023-04-24T03:56:28;1.08;;;0.70;;
38123;SDS011;23934;47.998;9.832;2023-04-24T03:58:54;1.23;;;0.73;;
38123;SDS011;23934;47.998;9.832;2023-04-24T04:01:20;0.98;;;0.60;;
38123;SDS011;23934;47.998;9.832;2023-04-24T04:03:46;1.40;;;0.82;;
38123;SDS011;23934;47.998;9.832;2023-04-24T04:06:12;1.73;;;0.77;;
38123;SDS011;23934;47.998;9.832;2023-04-24T04:08:38;1.35;;;0.63;;
38123;SDS011;23934;47.998;9.832;2023-04-24T04:11:04;1.20;;;0.80;;
38123;SDS011;23934;47.998;9.832;2023-04-24T04:13:30;1.40;;;0.73;;
38123;SDS011;23934;47.998;9.832;2023-04-24T04:15:56;0.73;;;0.70;;
38123;SDS011;23934;47.998;9.832;2023-04-24T04:18:22;0.93;;;0.70;;
38123;SDS011;23934;47.998;9.832;2023-04-24T04:20:48;5.22;;;1.50;;
38123;SDS011;23934;47.998;9.832;2023-04-24T04:23:14;1.05;;;0.50;;
38123;SDS011;23934;47.998;9.832;2023-04-24T04:25:40;1.20;;;0.50;;
38123;SDS011;23934;47.998;9.832;2023-04-24T04:28:06;4.90;;;0.73;;
38123;SDS011;23934;47.998;9.832;2023-04-24T04:30:32;0.68;;;0.50;;
38123;SDS011;23934;47.998;9.832;2023-04-24T04:32:58;0.68;;;0.60;;
38123;SDS011;23934;47.998;9.832;2023-04-24T04:35:24;0.40;;;0.40;;
38123;SDS011;23934;47.998;9.832;2023-04-24T04:37:50;1.35;;;0.60;;
38123;SDS011;23934;47.998;9.832;2023-04-24T04:40:16;1.48;;;0.65;;
38123;SDS011;23934;47.998;9.832;2023-04-24T04:42:42;0.45;;;0.35;;
38123;SDS011;23934;47.998;9.832;2023-04-24T04:45:10;0.90;;;0.60;;
38123;SDS011;23934;47.998;9.832;2023-04-24T04:47:37;0.60;;;0.50;;
38123;SDS011;23934;47.998;9.832;2023-04-24T04:50:03;0.60;;;0.40;;
38123;SDS011;23934;47.998;9.832;2023-04-24T04:52:30;1.38;;;0.60;;
38123;SDS011;23934;47.998;9.832;2023-04-24T04:54:56;1.73;;;0.63;;
38123;SDS011;23934;47.998;9.832;2023-04-24T04:57:22;0.50;;;0.47;;
38123;SDS011;23934;47.998;9.832;2023-04-24T04:59:48;0.93;;;0.50;;
38123;SDS011;23934;47.998;9.832;2023-04-24T05:02:14;0.57;;;0.38;;
38123;SDS011;23934;47.998;9.832;2023-04-24T05:04:40;0.55;;;0.40;;
38123;SDS011;23934;47.998;9.832;2023-04-24T05:07:05;0.50;;;0.50;;
38123;SDS011;23934;47.998;9.832;2023-04-24T05:09:31;1.42;;;0.63;;
38123;SDS011;23934;47.998;9.832;2023-04-24T05:11:57;9.45;;;3.40;;
38123;SDS011;23934;47.998;9.832;2023-04-24T05:14:23;30.45;;;9.27;;
38123;SDS011;23934;47.998;9.832;2023-04-24T05:16:49;32.53;;;9.07;;
38123;SDS011;23934;47.998;9.832;2023-04-24T05:19:15;15.43;;;5.57;;
38123;SDS011;23934;47.998;9.832;2023-04-24T05:21:41;62.80;;;16.85;;
38123;SDS011;23934;47.998;9.832;2023-04-24T05:24:07;60.47;;;15.70;;
38123;SDS011;23934;47.998;9.832;2023-04-24T05:26:33;56.38;;;16.15;;
38123;SDS011;23934;47.998;9.832;2023-04-24T05:29:00;34.45;;;10.52;;
38123;SDS011;23934;47.998;9.832;2023-04-24T05:31:27;6.35;;;1.83;;
38123;SDS011;23934;47.998;9.832;2023-04-24T05:33:53;1.42;;;0.70;;
38123;SDS011;23934;47.998;9.832;2023-04-24T05:36:19;0.30;;;0.30;;
38123;SDS011;23934;47.998;9.832;2023-04-24T05:38:45;1.60;;;0.50;;
38123;SDS011;23934;47.998;9.832;2023-04-24T05:41:11;0.73;;;0.47;;
38123;SDS011;23934;47.998;9.832;2023-04-24T05:43:37;0.65;;;0.45;;
38123;SDS011;23934;47.998;9.832;2023-04-24T05:46:03;0.55;;;0.40;;
38123;SDS011;23934;47.998;9.832;2023-04-24T05:48:29;0.95;;;0.60;;
38123;SDS011;23934;47.998;9.832;2023-04-24T05:50:55;1.73;;;0.73;;
38123;SDS011;23934;47.998;9.832;2023-04-24T05:53:21;0.77;;;0.40;;
38123;SDS011;23934;47.998;9.832;2023-04-24T05:55:47;2.47;;;0.40;;
38123;SDS011;23934;47.998;9.832;2023-04-24T05:58:13;1.13;;;0.50;;
38123;SDS011;23934;47.998;9.832;2023-04-24T06:00:40;0.88;;;0.43;;
38123;SDS011;23934;47.998;9.832;2023-04-24T06:03:07;4.13;;;1.15;;
38123;SDS011;23934;47.998;9.832;2023-04-24T06:05:33;0.35;;;0.32;;
38123;SDS011;23934;47.998;9.832;2023-04-24T06:08:00;0.32;;;0.20;;
38123;SDS011;23934;47.998;9.832;2023-04-24T06:10:26;0.88;;;0.30;;
38123;SDS011;23934;47.998;9.832;2023-04-24T06:12:52;1.02;;;0.30;;
38123;SDS011;23934;47.998;9.832;2023-04-24T06:15:21;1.60;;;0.70;;
38123;SDS011;23934;47.998;9.832;2023-04-24T06:17:47;3.53;;;0.50;;
38123;SDS011;23934;47.998;9.832;2023-04-24T06:20:13;1.45;;;0.60;;
38123;SDS011;23934;47.998;9.832;2023-04-24T06:22:39;0.35;;;0.35;;
38123;SDS011;23934;47.998;9.832;2023-04-24T06:25:05;0.50;;;0.50;;
38123;SDS011;23934;47.998;9.832;2023-04-24T06:27:32;0.45;;;0.20;;
38123;SDS011;23934;47.998;9.832;2023-04-24T06:29:58;0.40;;;0.30;;
38123;SDS011;23934;47.998;9.832;2023-04-24T06:32:24;1.02;;;0.60;;
38123;SDS011;23934;47.998;9.832;2023-04-24T06:34:51;0.50;;;0.43;;
38123;SDS011;23934;47.998;9.832;2023-04-24T06:37:18;0.63;;;0.30;;
38123;SDS011;23934;47.998;9.832;2023-04-24T06:39:44;0.30;;;0.20;;
38123;SDS011;23934;47.998;9.832;2023-04-24T06:42:10;1.48;;;0.52;;
38123;SDS011;23934;47.998;9.832;2023-04-24T06:44:36;1.02;;;0.60;;
38123;SDS011;23934;47.998;9.832;2023-04-24T06:47:06;1.85;;;0.50;;
38123;SDS011;23934;47.998;9.832;2023-04-24T06:49:33;1.48;;;0.50;;
38123;SDS011;23934;47.998;9.832;2023-04-24T06:51:59;0.90;;;0.47;;
38123;SDS011;23934;47.998;9.832;2023-04-24T06:54:25;3.10;;;0.50;;
38123;SDS011;23934;47.998;9.832;2023-04-24T06:56:51;1.52;;;0.68;;
38123;SDS011;23934;47.998;9.832;2023-04-24T06:59:17;1.10;;;0.65;;
38123;SDS011;23934;47.998;9.832;2023-04-24T07:01:43;1.13;;;0.70;;
38123;SDS011;23934;47.998;9.832;2023-04-24T07:04:09;0.98;;;0.50;;
38123;SDS011;23934;47.998;9.832;2023-04-24T07:06:36;1.15;;;0.77;;
38123;SDS011;23934;47.998;9.832;2023-04-24T07:09:04;11.30;;;1.55;;
38123;SDS011;23934;47.998;9.832;2023-04-24T07:11:30;0.70;;;0.50;;
38123;SDS011;23934;47.998;9.832;2023-04-24T07:13:56;2.78;;;0.90;;
38123;SDS011;23934;47.998;9.832;2023-04-24T07:16:22;4.53;;;1.20;;
38123;SDS011;23934;47.998;9.832;2023-04-24T07:18:48;0.60;;;0.50;;
38123;SDS011;23934;47.998;9.832;2023-04-24T07:21:14;0.65;;;0.55;;
38123;SDS011;23934;47.998;9.832;2023-04-24T07:23:40;0.85;;;0.63;;
38123;SDS011;23934;47.998;9.832;2023-04-24T07:26:06;0.70;;;0.52;;
38123;SDS011;23934;47.998;9.832;2023-04-24T07:28:32;1.63;;;0.68;;
38123;SDS011;23934;47.998;9.832;2023-04-24T07:30:58;3.38;;;0.82;;
38123;SDS011;23934;47.998;9.832;2023-04-24T07:33:24;1.27;;;0.80;;
38123;SDS011;23934;47.998;9.832;2023-04-24T07:35:50;1.10;;;0.90;;
38123;SDS011;23934;47.998;9.832;2023-04-24T07:38:17;0.90;;;0.70;;
38123;SDS011;23934;47.998;9.832;2023-04-24T07:40:46;0.98;;;0.60;;
38123;SDS011;23934;47.998;9.832;2023-04-24T07:43:12;1.10;;;0.60;;
38123;SDS011;23934;47.998;9.832;2023-04-24T07:45:38;2.10;;;0.80;;
38123;SDS011;23934;47.998;9.832;2023-04-24T07:48:04;1.75;;;0.80;;
38123;SDS011;23934;47.998;9.832;2023-04-24T07:50:30;1.48;;;0.90;;
38123;SDS011;23934;47.998;9.832;2023-04-24T07:52:56;1.48;;;0.90;;
38123;SDS011;23934;47.998;9.832;2023-04-24T07:55:23;4.22;;;1.00;;
38123;SDS011;23934;47.998;9.832;2023-04-24T07:57:49;1.33;;;0.90;;
38123;SDS011;23934;47.998;9.832;2023-04-24T08:00:15;1.17;;;0.80;;
38123;SDS011;23934;47.998;9.832;2023-04-24T08:02:41;0.80;;;0.65;;
38123;SDS011;23934;47.998;9.832;2023-04-24T08:05:07;1.13;;;0.70;;
38123;SDS011;23934;47.998;9.832;2023-04-24T08:07:33;2.25;;;0.90;;
38123;SDS011;23934;47.998;9.832;2023-04-24T08:10:00;1.13;;;0.85;;
38123;SDS011;23934;47.998;9.832;2023-04-24T08:12:27;2.10;;;0.90;;
38123;SDS011;23934;47.998;9.832;2023-04-24T08:14:53;1.88;;;1.05;;
38123;SDS011;23934;47.998;9.832;2023-04-24T08:17:19;0.95;;;0.60;;
38123;SDS011;23934;47.998;9.832;2023-04-24T08:19:45;1.08;;;0.82;;
38123;SDS011;23934;47.998;9.832;2023-04-24T08:22:16;0.65;;;0.55;;
38123;SDS011;23934;47.998;9.832;2023-04-24T08:24:42;1.55;;;0.93;;
38123;SDS011;23934;47.998;9.832;2023-04-24T08:27:08;2.08;;;1.05;;
38123;SDS011;23934;47.998;9.832;2023-04-24T08:29:35;1.40;;;1.02;;
38123;SDS011;23934;47.998;9.832;2023-04-24T08:32:01;1.75;;;0.88;;
38123;SDS011;23934;47.998;9.832;2023-04-24T08:34:27;2.95;;;1.10;;
38123;SDS011;23934;47.998;9.832;2023-04-24T08:36:53;3.53;;;0.70;;
38123;SDS011;23934;47.998;9.832;2023-04-24T08:39:19;1.15;;;0.85;;
38123;SDS011;23934;47.998;9.832;2023-04-24T08:41:45;3.15;;;1.27;;
38123;SDS011;23934;47.998;9.832;2023-04-24T08:44:14;2.13;;;0.90;;
38123;SDS011;23934;47.998;9.832;2023-04-24T08:46:41;2.60;;;0.90;;
38123;SDS011;23934;47.998;9.832;2023-04-24T08:49:08;0.93;;;0.55;;
38123;SDS011;23934;47.998;9.832;2023-04-24T08:51:34;0.45;;;0.35;;
38123;SDS011;23934;47.998;9.832;2023-04-24T08:54:02;0.63;;;0.32;;
38123;SDS011;23934;47.998;9.832;2023-04-24T08:56:28;1.05;;;0.40;;
38123;SDS011;23934;47.998;9.832;2023-04-24T08:58:55;2.35;;;0.60;;
38123;SDS011;23934;47.998;9.832;2023-04-24T09:01:22;3.30;;;1.00;;
38123;SDS011;23934;47.998;9.832;2023-04-24T09:03:49;1.25;;;0.77;;
38123;SDS011;23934;47.998;9.832;2023-04-24T09:06:16;9.65;;;2.25;;
38123;SDS011;23934;47.998;9.832;2023-04-24T09:08:43;2.65;;;1.23;;
38123;SDS011;23934;47.998;9.832;2023-04-24T09:11:10;3.92;;;1.73;;
38123;SDS011;23934;47.998;9.832;2023-04-24T09:13:37;1.90;;;0.98;;
38123;SDS011;23934;47.998;9.832;2023-04-24T09:16:03;6.47;;;1.85;;
38123;SDS011;23934;47.998;9.832;2023-04-24T09:18:29;2.08;;;1.02;;
38123;SDS011;23934;47.998;9.832;2023-04-24T09:21:02;3.35;;;1.20;;
38123;SDS011;23934;47.998;9.832;2023-04-24T09:23:29;4.15;;;1.33;;
38123;SDS011;23934;47.998;9.832;2023-04-24T09:25:55;5.28;;;1.15;;
38123;SDS011;23934;47.998;9.832;2023-04-24T09:28:25;1.58;;;1.10;;
38123;SDS011;23934;47.998;9.832;2023-04-24T09:31:25;1.60;;;0.93;;
38123;SDS011;23934;47.998;9.832;2023-04-24T09:33:53;4.47;;;1.20;;
38123;SDS011;23934;47.998;9.832;2023-04-24T09:36:19;2.35;;;0.90;;
38123;SDS011;23934;47.998;9.832;2023-04-24T09:38:53;2.05;;;0.70;;
38123;SDS011;23934;47.998;9.832;2023-04-24T09:41:19;1.33;;;0.80;;
38123;SDS011;23934;47.998;9.832;2023-04-24T09:43:45;0.95;;;0.73;;
38123;SDS011;23934;47.998;9.832;2023-04-24T09:46:11;1.25;;;0.82;;
38123;SDS011;23934;47.998;9.832;2023-04-24T09:48:38;1.10;;;0.80;;
38123;SDS011;23934;47.998;9.832;2023-04-24T09:51:05;1.35;;;0.80;;
38123;SDS011;23934;47.998;9.832;2023-04-24T09:53:32;1.20;;;0.80;;
38123;SDS011;23934;47.998;9.832;2023-04-24T09:56:10;1.95;;;0.90;;
38123;SDS011;23934;47.998;9.832;2023-04-24T09:58:38;3.72;;;1.10;;
38123;SDS011;23934;47.998;9.832;2023-04-24T10:01:04;3.72;;;0.95;;
38123;SDS011;23934;47.998;9.832;2023-04-24T10:03:30;5.90;;;1.17;;
38123;SDS011;23934;47.998;9.832;2023-04-24T10:06:00;4.45;;;1.08;;
38123;SDS011;23934;47.998;9.832;2023-04-24T10:08:26;0.75;;;0.70;;
38123;SDS011;23934;47.998;9.832;2023-04-24T10:13:24;1.10;;;0.70;;
38123;SDS011;23934;47.998;9.832;2023-04-24T10:15:50;1.65;;;1.17;;
38123;SDS011;23934;47.998;9.832;2023-04-24T10:18:16;1.65;;;1.10;;
38123;SDS011;23934;47.998;9.832;2023-04-24T10:20:42;1.83;;;1.00;;
38123;SDS011;23934;47.998;9.832;2023-04-24T10:23:08;5.85;;;1.27;;
38123;SDS011;23934;47.998;9.832;2023-04-24T10:25:35;1.48;;;0.80;;
38123;SDS011;23934;47.998;9.832;2023-04-24T10:28:02;4.85;;;1.27;;
38123;SDS011;23934;47.998;9.832;2023-04-24T10:30:32;1.10;;;1.00;;
38123;SDS011;23934;47.998;9.832;2023-04-24T10:33:02;1.35;;;1.00;;
38123;SDS011;23934;47.998;9.832;2023-04-24T10:35:30;4.13;;;1.15;;
38123;SDS011;23934;47.998;9.832;2023-04-24T10:37:57;3.92;;;1.40;;
38123;SDS011;23934;47.998;9.832;2023-04-24T10:40:26;4.10;;;1.33;;
38123;SDS011;23934;47.998;9.832;2023-04-24T10:42:53;1.67;;;1.00;;
38123;SDS011;23934;47.998;9.832;2023-04-24T10:45:20;6.40;;;1.35;;
38123;SDS011;23934;47.998;9.832;2023-04-24T10:47:59;5.15;;;1.20;;
38123;SDS011;23934;47.998;9.832;2023-04-24T10:50:34;2.83;;;1.17;;
38123;SDS011;23934;47.998;9.832;2023-04-24T10:53:09;1.27;;;0.80;;
38123;SDS011;23934;47.998;9.832;2023-04-24T11:00:36;1.65;;;0.82;;
38123;SDS011;23934;47.998;9.832;2023-04-24T11:03:04;3.65;;;0.82;;
38123;SDS011;23934;47.998;9.832;2023-04-24T11:10:56;4.15;;;1.40;;
38123;SDS011;23934;47.998;9.832;2023-04-24T11:13:23;1.90;;;0.73;;
38123;SDS011;23934;47.998;9.832;2023-04-24T11:18:36;1.63;;;0.85;;
38123;SDS011;23934;47.998;9.832;2023-04-24T11:21:09;3.33;;;1.00;;
38123;SDS011;23934;47.998;9.832;2023-04-24T11:23:36;7.10;;;1.38;;
38123;SDS011;23934;47.998;9.832;2023-04-24T11:26:09;1.25;;;0.80;;
38123;SDS011;23934;47.998;9.832;2023-04-24T11:28:36;3.35;;;1.13;;
38123;SDS011;23934;47.998;9.832;2023-04-24T11:33:46;1.42;;;0.95;;
38123;SDS011;23934;47.998;9.832;2023-04-24T11:36:12;1.80;;;1.05;;
38123;SDS011;23934;47.998;9.832;2023-04-24T11:38:38;3.05;;;1.08;;
38123;SDS011;23934;47.998;9.832;2023-04-24T11:41:05;3.58;;;1.38;;
38123;SDS011;23934;47.998;9.832;2023-04-24T11:43:32;3.25;;;1.33;;
38123;SDS011;23934;47.998;9.832;2023-04-24T11:45:59;2.88;;;0.98;;
38123;SDS011;23934;47.998;9.832;2023-04-24T11:48:25;4.32;;;0.98;;
38123;SDS011;23934;47.998;9.832;2023-04-24T11:50:51;1.73;;;1.00;;
38123;SDS011;23934;47.998;9.832;2023-04-24T11:53:19;4.30;;;1.95;;
38123;SDS011;23934;47.998;9.832;2023-04-24T11:55:46;4.32;;;1.42;;
38123;SDS011;23934;47.998;9.832;2023-04-24T11:58:12;2.90;;;1.13;;
38123;SDS011;23934;47.998;9.832;2023-04-24T12:00:38;1.98;;;1.40;;
38123;SDS011;23934;47.998;9.832;2023-04-24T12:03:05;3.78;;;1.30;;
38123;SDS011;23934;47.998;9.832;2023-04-24T12:05:32;2.88;;;1.15;;
38123;SDS011;23934;47.998;9.832;2023-04-24T12:07:58;3.03;;;1.58;;
38123;SDS011;23934;47.998;9.832;2023-04-24T12:10:25;5.80;;;1.05;;
38123;SDS011;23934;47.998;9.832;2023-04-24T12:12:52;4.43;;;1.67;;
38123;SDS011;23934;47.998;9.832;2023-04-24T12:15:18;4.03;;;1.50;;
38123;SDS011;23934;47.998;9.832;2023-04-24T12:17:45;1.98;;;1.13;;
38123;SDS011;23934;47.998;9.832;2023-04-24T12:20:11;3.92;;;1.42;;
38123;SDS011;23934;47.998;9.832;2023-04-24T12:22:50;8.65;;;1.30;;
38123;SDS011;23934;47.998;9.832;2023-04-24T12:25:19;2.90;;;1.70;;
38123;SDS011;23934;47.998;9.832;2023-04-24T12:27:45;1.98;;;1.17;;
38123;SDS011;23934;47.998;9.832;2023-04-24T12:30:13;3.00;;;1.10;;
38123;SDS011;23934;47.998;9.832;2023-04-24T12:32:42;3.30;;;1.20;;
38123;SDS011;23934;47.998;9.832;2023-04-24T12:35:09;1.10;;;0.80;;
38123;SDS011;23934;47.998;9.832;2023-04-24T12:37:35;1.42;;;1.10;;
38123;SDS011;23934;47.998;9.832;2023-04-24T12:45:03;7.75;;;2.00;;
38123;SDS011;23934;47.998;9.832;2023-04-24T12:47:30;2.30;;;1.40;;
38123;SDS011;23934;47.998;9.832;2023-04-24T12:49:56;1.83;;;1.10;;
38123;SDS011;23934;47.998;9.832;2023-04-24T12:52:22;1.95;;;1.02;;
38123;SDS011;23934;47.998;9.832;2023-04-24T12:54:49;2.42;;;1.10;;
38123;SDS011;23934;47.998;9.832;2023-04-24T12:57:15;2.25;;;1.02;;
38123;SDS011;23934;47.998;9.832;2023-04-24T12:59:42;1.63;;;0.90;;
38123;SDS011;23934;47.998;9.832;2023-04-24T13:02:08;3.50;;;1.10;;
38123;SDS011;23934;47.998;9.832;2023-04-24T13:04:35;3.05;;;1.05;;
38123;SDS011;23934;47.998;9.832;2023-04-24T13:07:01;2.10;;;0.90;;
38123;SDS011;23934;47.998;9.832;2023-04-24T13:09:27;6.68;;;1.30;;
38123;SDS011;23934;47.998;9.832;2023-04-24T13:11:53;5.90;;;1.40;;
38123;SDS011;23934;47.998;9.832;2023-04-24T13:14:19;1.73;;;0.90;;
38123;SDS011;23934;47.998;9.832;2023-04-24T13:16:45;9.70;;;1.40;;
38123;SDS011;23934;47.998;9.832;2023-04-24T13:19:11;5.90;;;1.00;;
38123;SDS011;23934;47.998;9.832;2023-04-24T13:21:37;4.70;;;1.35;;
38123;SDS011;23934;47.998;9.832;2023-04-24T13:24:03;2.38;;;1.00;;
38123;SDS011;23934;47.998;9.832;2023-04-24T13:26:30;4.07;;;1.08;;
38123;SDS011;23934;47.998;9.832;2023-04-24T13:28:56;2.53;;;1.20;;
38123;SDS011;23934;47.998;9.832;2023-04-24T13:31:22;2.10;;;1.05;;
38123;SDS011;23934;47.998;9.832;2023-04-24T13:33:48;2.63;;;0.95;;
38123;SDS011;23934;47.998;9.832;2023-04-24T13:36:14;2.05;;;0.90;;
38123;SDS011;23934;47.998;9.832;2023-04-24T13:38:41;1.40;;;0.93;;
38123;SDS011;23934;47.998;9.832;2023-04-24T13:41:07;1.95;;;0.80;;
38123;SDS011;23934;47.998;9.832;2023-04-24T13:43:33;2.67;;;1.00;;
38123;SDS011;23934;47.998;9.832;2023-04-24T13:45:59;1.90;;;0.93;;
38123;SDS011;23934;47.998;9.832;2023-04-24T13:48:27;3.58;;;0.98;;
38123;SDS011;23934;47.998;9.832;2023-04-24T13:50:53;3.92;;;1.00;;
38123;SDS011;23934;47.998;9.832;2023-04-24T13:53:19;2.40;;;1.00;;
38123;SDS011;23934;47.998;9.832;2023-04-24T13:55:45;1.00;;;0.63;;
38123;SDS011;23934;47.998;9.832;2023-04-24T13:58:11;1.85;;;1.10;;
38123;SDS011;23934;47.998;9.832;2023-04-24T14:00:37;2.65;;;1.30;;
38123;SDS011;23934;47.998;9.832;2023-04-24T14:03:03;3.28;;;0.70;;
38123;SDS011;23934;47.998;9.832;2023-04-24T14:05:29;6.53;;;1.25;;
38123;SDS011;23934;47.998;9.832;2023-04-24T14:07:55;1.30;;;0.80;;
38123;SDS011;23934;47.998;9.832;2023-04-24T14:10:21;3.10;;;0.80;;
38123;SDS011;23934;47.998;9.832;2023-04-24T14:12:47;1.25;;;1.02;;
38123;SDS011;23934;47.998;9.832;2023-04-24T14:15:13;8.27;;;0.85;;
38123;SDS011;23934;47.998;9.832;2023-04-24T14:17:39;3.80;;;0.85;;
38123;SDS011;23934;47.998;9.832;2023-04-24T14:20:05;1.27;;;0.82;;
38123;SDS011;23934;47.998;9.832;2023-04-24T14:22:32;1.30;;;0.80;;
38123;SDS011;23934;47.998;9.832;2023-04-24T14:24:58;0.93;;;0.70;;
38123;SDS011;23934;47.998;9.832;2023-04-24T14:27:24;0.82;;;0.70;;
38123;SDS011;23934;47.998;9.832;2023-04-24T14:29:50;1.90;;;0.90;;
38123;SDS011;23934;47.998;9.832;2023-04-24T14:32:16;4.47;;;1.02;;
38123;SDS011;23934;47.998;9.832;2023-04-24T14:34:42;2.75;;;0.90;;
38123;SDS011;23934;47.998;9.832;2023-04-24T14:37:08;3.00;;;1.10;;
38123;SDS011;23934;47.998;9.832;2023-04-24T14:39:34;5.75;;;1.23;;
38123;SDS011;23934;47.998;9.832;2023-04-24T14:42:00;1.33;;;0.80;;
38123;SDS011;23934;47.998;9.832;2023-04-24T14:44:26;2.17;;;0.82;;
38123;SDS011;23934;47.998;9.832;2023-04-24T14:46:52;0.85;;;0.73;;
38123;SDS011;23934;47.998;9.832;2023-04-24T14:49:18;4.47;;;1.00;;
38123;SDS011;23934;47.998;9.832;2023-04-24T14:51:44;2.03;;;0.90;;
38123;SDS011;23934;47.998;9.832;2023-04-24T14:54:10;3.38;;;0.98;;
38123;SDS011;23934;47.998;9.832;2023-04-24T14:56:36;2.20;;;1.00;;
38123;SDS011;23934;47.998;9.832;2023-04-24T14:59:04;3.47;;;1.30;;
38123;SDS011;23934;47.998;9.832;2023-04-24T15:01:30;2.35;;;0.93;;
38123;SDS011;23934;47.998;9.832;2023-04-24T15:03:56;1.80;;;0.90;;
38123;SDS011;23934;47.998;9.832;2023-04-24T15:06:22;2.10;;;1.30;;